Terminal Aerodrome Forecast
Issued by NWS

Home | Current Version | Previous Version | Text Only | Print | Product List | Glossary Off
Versions: 1 2 3 4 5 6 7 8 9 10 11 12 13 14 15 16 17 18 19

000
FTUS43 KGRB 141136
TAFATW
TAF
KATW 141136Z 1412/1512 03008KT P6SM BKN120
     FM141500 06010G15KT P6SM SCT035 BKN050
     FM141800 06011G17KT P6SM -RA OVC020
     FM142000 06011G17KT 5SM -RA OVC012
     FM142200 06012G18KT 3SM RA BR OVC005
     FM150000 05012G18KT 2SM RA BR OVC003
     FM150600 35011G18KT 4SM -RA BR OVC003=

USA.gov is the U.S. government's official web portal to all federal, state and local government web resources and services.